Time;durP1;ratioP1;P1;durP2;ratioP2;P2;SDS_P1;SDS_P2;PMS_P1;PMS_P2;Temp;Humidity;BMP_temperature;BMP_pressure;BME280_temperature;BME280_humidity;BME280_pressure;Samples;Min_cycle;Max_cycle;Signal;HPM_P1;HPM_P2
2023/02/12 00:00:09;;;;;;;186.38;171.13;;;;;;;5.78;89.91;103634.84;4985905;28;20041;-72
2023/02/12 00:02:41;;;;;;;201.00;186.32;;;;;;;5.87;89.40;103632.00;5005128;28;20095;-72
2023/02/12 00:05:06;;;;;;;184.35;169.75;;;;;;;5.84;89.19;103631.53;5002230;28;20034;-71
2023/02/12 00:07:32;;;;;;;200.13;185.52;;;;;;;5.83;89.17;103640.50;5015058;28;20045;-72
2023/02/12 00:09:58;;;;;;;200.52;185.82;;;;;;;5.68;89.63;103643.81;5005936;28;20139;-73
2023/02/12 00:12:23;;;;;;;199.07;184.57;;;;;;;5.64;89.75;103647.81;5001115;28;20077;-72
2023/02/12 00:14:51;;;;;;;193.07;178.98;;;;;;;5.62;90.21;103649.81;5000991;28;20038;-72
2023/02/12 00:17:17;;;;;;;188.02;172.73;;;;;;;5.64;90.13;103657.63;5000612;28;20038;-73
2023/02/12 00:19:43;;;;;;;195.88;181.63;;;;;;;5.65;90.08;103668.06;4974659;28;20101;-73
2023/02/12 00:22:08;;;;;;;199.75;185.23;;;;;;;5.68;89.86;103670.41;4994630;28;20475;-72
2023/02/12 00:24:34;;;;;;;195.98;181.52;;;;;;;5.68;89.59;103659.75;4984322;28;20046;-73
2023/02/12 00:26:59;;;;;;;193.57;179.55;;;;;;;5.61;90.09;103661.41;5004353;28;20111;-73
2023/02/12 00:29:25;;;;;;;182.70;168.15;;;;;;;5.70;90.24;103663.09;5005370;28;20557;-72
2023/02/12 00:31:51;;;;;;;192.18;178.20;;;;;;;5.71;89.93;103664.75;4999696;28;20025;-72
2023/02/12 00:34:17;;;;;;;192.90;178.95;;;;;;;5.62;89.67;103665.75;5000364;28;20038;-72
2023/02/12 00:36:42;;;;;;;180.73;166.25;;;;;;;5.68;89.71;103669.56;4985702;28;21460;-73
2023/02/12 00:39:09;;;;;;;194.23;180.02;;;;;;;5.67;89.63;103668.72;4992360;28;20502;-71
2023/02/12 00:41:40;;;;;;;196.35;182.10;;;;;;;5.62;89.77;103667.56;4985584;28;20040;-71
2023/02/12 00:44:06;;;;;;;185.45;170.43;;;;;;;5.67;89.80;103666.06;4985977;28;20030;-72
2023/02/12 00:46:33;;;;;;;185.55;170.65;;;;;;;5.59;89.75;103658.09;4987177;28;20038;-72
2023/02/12 00:48:59;;;;;;;182.98;168.13;;;;;;;5.55;90.10;103667.38;5004280;28;20455;-72
2023/02/12 00:51:25;;;;;;;194.45;180.60;;;;;;;5.60;90.01;103665.06;5005038;28;20808;-72
2023/02/12 00:53:51;;;;;;;182.32;167.75;;;;;;;5.58;90.03;103664.41;5004587;28;20034;-72
2023/02/12 00:56:16;;;;;;;182.32;167.73;;;;;;;5.60;90.33;103664.25;5001041;28;20057;-72
2023/02/12 00:58:42;;;;;;;194.40;180.30;;;;;;;5.62;90.21;103664.91;4985553;28;20468;-73
2023/02/12 01:01:08;;;;;;;184.05;169.52;;;;;;;5.63;89.86;103662.09;4975321;28;20084;-72
2023/02/12 01:03:35;;;;;;;198.38;183.85;;;;;;;5.62;89.84;103660.44;5013380;28;20049;-73
2023/02/12 01:06:00;;;;;;;189.02;173.65;;;;;;;5.63;90.09;103663.94;4986047;28;20057;-74
2023/02/12 01:08:27;;;;;;;198.98;184.48;;;;;;;5.65;89.60;103662.75;4985606;28;20081;-73
2023/02/12 01:10:55;;;;;;;184.25;169.73;;;;;;;5.65;89.25;103664.59;4987779;28;20082;-75
2023/02/12 01:13:21;;;;;;;181.68;167.05;;;;;;;5.62;89.75;103665.75;5016044;28;20038;-72
2023/02/12 01:15:47;;;;;;;182.40;167.95;;;;;;;5.56;89.51;103668.25;4971751;28;20030;-72
2023/02/12 01:18:16;;;;;;;198.02;183.85;;;;;;;5.65;89.25;103665.41;5005862;28;20557;-73
2023/02/12 01:20:51;;;;;;;200.63;186.07;;;;;;;5.51;89.42;103671.41;4969239;28;20568;-74
2023/02/12 01:23:17;;;;;;;187.50;172.43;;;;;;;5.52;89.56;103672.22;4998633;28;20042;-73
2023/02/12 01:25:55;;;;;;;184.88;170.20;;;;;;;5.57;89.37;103668.06;5001955;28;20030;-76
2023/02/12 01:28:31;;;;;;;186.27;171.43;;;;;;;5.46;89.53;103665.72;4987129;28;20042;-73
2023/02/12 01:30:59;;;;;;;198.38;184.10;;;;;;;5.39;89.76;103675.34;4991091;28;20137;-72
2023/02/12 01:33:25;;;;;;;183.48;169.07;;;;;;;5.53;89.66;103677.38;4989267;28;20065;-75
2023/02/12 01:35:51;;;;;;;183.65;168.63;;;;;;;5.48;89.91;103682.34;5001113;28;20607;-73
2023/02/12 01:38:17;;;;;;;194.38;180.25;;;;;;;5.42;89.54;103686.50;4985263;28;20044;-72
2023/02/12 01:40:43;;;;;;;184.20;169.60;;;;;;;5.39;89.88;103689.47;4980234;28;20112;-72
2023/02/12 01:43:11;;;;;;;191.90;178.10;;;;;;;5.62;89.34;103686.19;5001962;28;20113;-72
2023/02/12 01:45:52;;;;;;;181.60;167.18;;;;;;;5.46;89.55;103681.69;5002341;28;20030;-72
2023/02/12 01:48:20;;;;;;;181.85;167.45;;;;;;;5.50;89.26;103687.50;4971211;28;20088;-72
2023/02/12 01:50:48;;;;;;;184.98;170.23;;;;;;;5.41;89.21;103684.81;4985194;28;20069;-73
2023/02/12 01:53:19;;;;;;;181.88;167.73;;;;;;;5.39;89.58;103685.97;4985969;28;20061;-72
2023/02/12 01:55:56;;;;;;;196.50;182.35;;;;;;;5.35;89.26;103689.94;5001951;28;20034;-72
2023/02/12 01:58:25;;;;;;;193.52;179.60;;;;;;;5.45;89.34;103696.78;5001550;28;20030;-72
2023/02/12 02:00:52;;;;;;;190.18;176.50;;;;;;;5.41;89.15;103689.31;4971322;28;20041;-71
2023/02/12 02:03:18;;;;;;;181.77;167.45;;;;;;;5.39;89.17;103696.63;5002994;28;20034;-72
2023/02/12 02:05:55;;;;;;;183.02;168.63;;;;;;;5.38;89.06;103701.09;4999976;28;20045;-71
2023/02/12 02:08:21;;;;;;;197.13;183.05;;;;;;;5.41;89.00;103689.31;4996048;28;20398;-72
2023/02/12 02:10:47;;;;;;;186.55;171.68;;;;;;;5.43;88.95;103693.47;4965778;28;20409;-72
2023/02/12 02:16:13;;;;;;;192.18;178.32;;;;;;;5.31;89.49;103691.28;4996892;28;20042;-71
2023/02/12 02:18:51;;;;;;;199.73;185.18;;;;;;;5.26;89.65;103691.75;4983347;28;20034;-72
2023/02/12 02:21:17;;;;;;;203.63;188.88;;;;;;;5.33;89.30;103679.50;5003235;28;20046;-73
2023/02/12 02:24:20;;;;;;;199.77;184.82;;;;;;;5.26;89.64;103685.63;4969834;28;20041;-74
2023/02/12 02:27:14;;;;;;;188.40;173.13;;;;;;;5.29;89.56;103693.28;4987208;28;20129;-70
2023/02/12 02:30:07;;;;;;;192.75;176.93;;;;;;;5.22;89.39;103700.25;4998179;28;20036;-71
2023/02/12 02:33:05;;;;;;;203.20;188.13;;;;;;;5.18;89.52;103694.41;4995092;28;20053;-73
2023/02/12 02:35:38;;;;;;;192.13;176.52;;;;;;;5.27;89.64;103696.06;5002103;28;20037;-71
2023/02/12 02:38:21;;;;;;;187.65;172.27;;;;;;;5.24;89.83;103703.56;4998966;28;20034;-72
2023/02/12 02:40:56;;;;;;;203.60;188.35;;;;;;;5.25;89.68;103698.06;4987646;28;20045;-72
2023/02/12 02:43:41;;;;;;;186.40;170.82;;;;;;;5.18;90.04;103710.34;4984380;28;20049;-73
2023/02/12 02:46:15;;;;;;;191.63;175.73;;;;;;;5.11;90.22;103699.53;5017096;28;20069;-72
2023/02/12 02:48:48;;;;;;;189.80;174.18;;;;;;;5.18;90.00;103705.88;4997475;28;20034;-72
2023/02/12 02:51:20;;;;;;;188.95;173.30;;;;;;;5.18;89.70;103703.19;4996387;28;20625;-73
2023/02/12 02:53:53;;;;;;;187.45;172.10;;;;;;;5.13;90.11;103696.69;5035128;28;20038;-73
2023/02/12 02:56:21;;;;;;;196.10;181.32;;;;;;;5.12;90.05;103705.66;5001850;28;20117;-73
2023/02/12 02:58:56;;;;;;;187.90;172.48;;;;;;;5.10;90.28;103702.34;4995657;28;20038;-72
2023/02/12 03:01:30;;;;;;;182.65;168.10;;;;;;;5.11;90.11;103710.16;4987989;28;20808;-74
2023/02/12 03:04:16;;;;;;;187.88;172.48;;;;;;;5.11;90.08;103706.66;5005363;28;20042;-72
2023/02/12 03:07:15;;;;;;;189.52;173.75;;;;;;;5.10;90.06;103705.84;5006235;28;20048;-73
2023/02/12 03:09:46;;;;;;;186.27;171.00;;;;;;;5.12;89.78;103703.84;5000630;28;20062;-72
2023/02/12 03:12:18;;;;;;;186.98;171.77;;;;;;;5.06;90.07;103706.31;4997245;28;20022;-72
2023/02/12 03:14:49;;;;;;;196.45;182.23;;;;;;;5.10;89.95;103707.66;5000440;28;20036;-71
2023/02/12 03:17:29;;;;;;;192.13;177.63;;;;;;;5.10;89.94;103711.16;4999135;28;20707;-71
2023/02/12 03:20:04;;;;;;;182.95;168.10;;;;;;;5.11;90.25;103719.94;4970260;28;20450;-71
2023/02/12 03:22:35;;;;;;;183.25;168.50;;;;;;;5.10;90.27;103721.78;4998128;28;20069;-72
2023/02/12 03:25:14;;;;;;;187.18;171.77;;;;;;;5.08;90.05;103722.91;4999643;28;20143;-71
2023/02/12 03:27:42;;;;;;;186.73;171.65;;;;;;;5.07;90.02;103716.75;4998496;28;20068;-74
2023/02/12 03:30:09;;;;;;;197.00;182.35;;;;;;;5.10;90.16;103713.81;4966988;28;20159;-71
2023/02/12 03:32:51;;;;;;;193.18;178.88;;;;;;;5.11;89.99;103718.13;4997471;28;20027;-72
2023/02/12 03:35:46;;;;;;;192.32;177.98;;;;;;;5.16;90.27;103715.81;5002672;28;20125;-72
2023/02/12 03:38:39;;;;;;;182.25;167.68;;;;;;;5.15;90.04;103716.81;5001042;28;20508;-72
2023/02/12 03:41:20;;;;;;;187.52;172.43;;;;;;;5.10;89.95;103727.09;5015654;28;20033;-72
2023/02/12 03:43:54;;;;;;;186.75;171.60;;;;;;;5.14;90.25;103723.09;5002865;28;20137;-73
2023/02/12 03:46:46;;;;;;;182.50;167.63;;;;;;;5.08;90.04;103723.78;4996902;28;20038;-73
2023/02/12 03:49:28;;;;;;;193.48;179.43;;;;;;;5.07;90.24;103730.06;4986329;28;20061;-72
2023/02/12 03:51:54;;;;;;;194.32;179.80;;;;;;;5.11;90.36;103742.03;5012528;28;20034;-73
2023/02/12 03:54:21;;;;;;;193.68;179.63;;;;;;;5.05;90.36;103740.00;4982028;28;20064;-73
2023/02/12 03:57:06;;;;;;;187.25;171.98;;;;;;;5.07;89.84;103743.34;4998930;28;20038;-73
2023/02/12 03:59:36;;;;;;;196.75;182.43;;;;;;;5.10;90.04;103745.69;4998783;28;20037;-72
2023/02/12 04:02:03;;;;;;;183.23;168.38;;;;;;;5.06;90.09;103759.44;4998513;28;20040;-73
2023/02/12 04:04:29;;;;;;;181.95;166.90;;;;;;;5.05;89.77;103757.78;5032599;28;20041;-72
2023/02/12 04:06:56;;;;;;;194.75;180.25;;;;;;;5.06;90.05;103754.97;4997945;28;20052;-72
2023/02/12 04:09:25;;;;;;;186.52;171.40;;;;;;;5.04;89.96;103762.25;5001608;28;20030;-73
2023/02/12 04:12:15;;;;;;;186.20;171.00;;;;;;;5.02;90.13;103756.28;5016889;28;20061;-71
2023/02/12 04:14:59;;;;;;;188.93;173.32;;;;;;;4.99;89.99;103759.25;4998790;28;20192;-72
2023/02/12 04:17:31;;;;;;;187.07;171.80;;;;;;;5.10;90.18;103761.63;5015636;28;20034;-73
2023/02/12 04:20:18;;;;;;;187.48;171.65;;;;;;;5.10;90.39;103745.69;5034354;28;20056;-73
2023/02/12 04:22:53;;;;;;;198.50;183.77;;;;;;;5.06;89.92;103757.59;4985534;28;20539;-72
2023/02/12 04:25:42;;;;;;;200.07;185.20;;;;;;;5.03;90.50;103760.59;4982351;28;20040;-71
2023/02/12 04:28:07;;;;;;;203.27;187.77;;;;;;;5.01;90.21;103762.56;4999468;28;20616;-72
2023/02/12 04:30:41;;;;;;;196.90;182.40;;;;;;;5.09;90.21;103754.66;4985182;28;20041;-72
2023/02/12 04:33:13;;;;;;;202.30;186.88;;;;;;;5.08;90.17;103766.28;4978394;28;20031;-74
2023/02/12 04:35:53;;;;;;;187.80;172.18;;;;;;;5.10;90.31;103764.28;4980520;28;20036;-74
2023/02/12 04:38:31;;;;;;;190.60;174.82;;;;;;;5.06;90.29;103765.56;5001352;28;20049;-73
2023/02/12 04:40:57;;;;;;;190.70;174.77;;;;;;;5.05;90.55;103773.72;4998103;28;20037;-72
2023/02/12 04:43:28;;;;;;;196.43;181.15;;;;;;;5.10;90.29;103776.72;5000695;28;20041;-72
2023/02/12 04:45:54;;;;;;;192.35;176.05;;;;;;;5.15;90.40;103779.75;5013519;28;20385;-71
2023/02/12 04:48:20;;;;;;;190.95;174.73;;;;;;;5.18;90.30;103779.41;5005739;28;20491;-71
2023/02/12 04:50:46;;;;;;;197.15;179.25;;;;;;;5.14;90.54;103776.25;5000892;28;20034;-72
2023/02/12 04:53:12;;;;;;;193.70;176.25;;;;;;;5.15;90.24;103767.31;5000311;28;20030;-72
2023/02/12 04:55:38;;;;;;;207.63;189.40;;;;;;;5.11;90.53;103767.78;5003061;28;20582;-73
2023/02/12 04:58:04;;;;;;;208.30;189.50;;;;;;;5.12;90.73;103772.91;5002689;28;20391;-72
2023/02/12 05:00:30;;;;;;;208.32;183.55;;;;;;;5.18;90.31;103777.59;5005214;28;20030;-73
2023/02/12 05:02:55;;;;;;;257.20;192.07;;;;;;;5.20;90.47;103767.63;5002254;28;20183;-74
2023/02/12 05:05:21;;;;;;;222.52;196.45;;;;;;;5.16;90.51;103771.63;4986870;28;20041;-73
2023/02/12 05:07:47;;;;;;;229.93;201.38;;;;;;;5.16;90.94;103763.66;5002681;28;20037;-72
2023/02/12 05:10:13;;;;;;;258.55;186.88;;;;;;;5.22;90.52;103769.31;5003193;28;20200;-72
2023/02/12 05:12:39;;;;;;;273.48;198.85;;;;;;;5.22;90.94;103774.63;5003315;28;20113;-73
2023/02/12 05:15:05;;;;;;;277.40;187.90;;;;;;;5.12;90.82;103780.88;5002629;28;20043;-72
2023/02/12 05:17:30;;;;;;;271.63;203.13;;;;;;;5.14;90.91;103768.28;5006340;28;20480;-72
2023/02/12 05:19:56;;;;;;;256.42;187.70;;;;;;;5.11;91.01;103778.41;5003696;28;20066;-72
2023/02/12 05:22:22;;;;;;;307.25;188.52;;;;;;;5.12;90.73;103774.75;5004195;28;20062;-73
2023/02/12 05:24:47;;;;;;;297.85;189.30;;;;;;;5.12;90.75;103772.09;5002578;28;20087;-72
2023/02/12 05:27:13;;;;;;;364.65;189.43;;;;;;;5.17;90.75;103775.94;4986621;28;20046;-72
2023/02/12 05:29:39;;;;;;;272.73;196.57;;;;;;;5.15;90.73;103780.59;5002259;28;20526;-72
2023/02/12 05:32:05;;;;;;;297.85;196.52;;;;;;;5.20;91.24;103778.25;4996996;28;20034;-72
2023/02/12 05:34:31;;;;;;;252.35;180.57;;;;;;;5.27;91.18;103777.63;4979722;28;20049;-74
2023/02/12 05:36:56;;;;;;;301.02;191.48;;;;;;;5.31;90.89;103779.81;4975822;28;20046;-72
2023/02/12 05:39:22;;;;;;;333.88;183.65;;;;;;;5.33;91.27;103782.31;5000631;28;20030;-72
2023/02/12 05:41:48;;;;;;;269.02;187.43;;;;;;;5.26;91.02;103781.28;5020393;28;20040;-73
2023/02/12 05:44:14;;;;;;;329.98;183.93;;;;;;;5.25;91.03;103780.44;5000490;28;20034;-74
2023/02/12 05:46:40;;;;;;;249.70;182.85;;;;;;;5.20;90.81;103788.06;4968794;28;20532;-72
2023/02/12 05:49:06;;;;;;;304.10;191.98;;;;;;;5.23;90.92;103782.44;5021359;28;20034;-72
2023/02/12 05:51:32;;;;;;;311.08;183.27;;;;;;;5.28;91.28;103779.28;5004161;28;20475;-73
2023/02/12 05:54:02;;;;;;;229.98;191.35;;;;;;;5.25;91.07;103785.75;5004691;28;20037;-73
2023/02/12 05:56:40;;;;;;;284.25;190.43;;;;;;;5.36;91.02;103779.34;5004145;28;20080;-73
2023/02/12 05:59:11;;;;;;;400.38;195.45;;;;;;;5.29;90.78;103794.25;5019029;28;20034;-73
2023/02/12 06:01:39;;;;;;;409.88;189.70;;;;;;;5.24;91.08;103789.41;4999412;28;20037;-73
2023/02/12 06:04:09;;;;;;;310.83;192.50;;;;;;;5.19;91.11;103797.84;4995940;28;20490;-72
2023/02/12 06:06:35;;;;;;;236.38;192.70;;;;;;;5.15;90.96;103793.88;5006747;28;20095;-72
2023/02/12 06:09:01;;;;;;;322.98;187.35;;;;;;;5.24;90.93;103800.03;4999733;28;20539;-71
2023/02/12 06:11:27;;;;;;;325.80;192.07;;;;;;;5.25;91.15;103811.50;4992872;28;20034;-72
2023/02/12 06:13:53;;;;;;;287.20;188.60;;;;;;;5.31;90.96;103801.06;5003451;28;20044;-72
2023/02/12 06:16:21;;;;;;;278.45;194.90;;;;;;;5.43;91.04;103804.28;4999427;28;20592;-74
2023/02/12 06:18:48;;;;;;;267.40;195.27;;;;;;;5.38;91.10;103814.56;5003550;28;20089;-72
2023/02/12 06:21:14;;;;;;;271.95;183.75;;;;;;;5.29;91.13;103807.56;5005385;28;20052;-73
2023/02/12 06:23:40;;;;;;;284.98;197.93;;;;;;;5.23;91.11;103811.66;4999690;28;20606;-72
2023/02/12 06:26:06;;;;;;;360.70;189.57;;;;;;;5.29;91.02;103810.22;4986860;28;20116;-72
2023/02/12 06:28:32;;;;;;;270.23;186.05;;;;;;;5.17;90.91;103804.34;4999837;28;20052;-73
2023/02/12 06:30:57;;;;;;;339.95;195.20;;;;;;;5.28;91.22;103805.84;4985057;28;20040;-73
2023/02/12 06:33:23;;;;;;;283.75;191.10;;;;;;;5.24;91.36;103805.38;5019734;28;20026;-73
2023/02/12 06:35:49;;;;;;;368.33;196.75;;;;;;;5.26;91.49;103803.38;5005137;28;20511;-73
2023/02/12 06:38:16;;;;;;;329.02;193.63;;;;;;;5.36;90.88;103792.63;4989316;28;20495;-74
2023/02/12 06:40:41;;;;;;;297.80;193.88;;;;;;;5.35;91.49;103804.22;5019885;28;20040;-73
2023/02/12 06:43:08;;;;;;;446.67;194.77;;;;;;;5.43;91.27;103809.59;4988242;28;20042;-74
2023/02/12 06:45:34;;;;;;;340.42;190.68;;;;;;;5.41;91.46;103814.22;4990250;28;20076;-73
2023/02/12 06:47:59;;;;;;;335.45;192.45;;;;;;;5.43;91.01;103814.91;4988253;28;20309;-72
2023/02/12 06:50:27;;;;;;;381.83;184.02;;;;;;;5.46;90.97;103823.38;5000862;28;20415;-73
2023/02/12 06:52:53;;;;;;;413.58;186.23;;;;;;;5.47;91.18;103821.56;5015055;28;20042;-74
2023/02/12 06:55:18;;;;;;;439.17;181.32;;;;;;;5.56;90.90;103836.56;5002001;28;20034;-72
2023/02/12 06:57:44;;;;;;;335.10;191.90;;;;;;;5.52;90.92;103834.38;4989968;28;20756;-72
2023/02/12 07:00:10;;;;;;;300.02;194.85;;;;;;;5.53;90.96;103836.88;4988742;28;20041;-72
2023/02/12 07:02:36;;;;;;;307.88;183.30;;;;;;;5.56;91.29;103847.19;4989133;28;20092;-73
2023/02/12 07:05:01;;;;;;;308.42;183.30;;;;;;;5.55;91.30;103850.81;5007871;28;20049;-73
2023/02/12 07:07:27;;;;;;;422.90;185.80;;;;;;;5.59;91.44;103852.19;4998134;28;20546;-72
2023/02/12 07:09:52;;;;;;;328.95;191.68;;;;;;;5.63;91.01;103850.88;4986535;28;20076;-72
2023/02/12 07:12:18;;;;;;;417.77;193.38;;;;;;;5.58;90.84;103850.53;5000112;28;20699;-73
2023/02/12 07:14:44;;;;;;;343.27;192.85;;;;;;;5.57;91.20;103859.50;5005048;28;20133;-73
2023/02/12 07:17:09;;;;;;;351.00;183.23;;;;;;;5.58;91.17;103855.84;5015058;28;20117;-73
2023/02/12 07:19:35;;;;;;;344.63;195.07;;;;;;;5.45;91.14;103861.59;5004800;28;20128;-70
2023/02/12 07:22:01;;;;;;;293.23;193.25;;;;;;;5.48;91.00;103855.94;5001175;28;20034;-70
2023/02/12 07:24:27;;;;;;;297.70;182.05;;;;;;;5.37;91.09;103858.06;4985128;28;20100;-72
2023/02/12 07:26:53;;;;;;;267.73;193.85;;;;;;;5.60;91.39;103856.50;4987919;28;20052;-72
2023/02/12 07:29:18;;;;;;;243.32;180.93;;;;;;;5.60;90.89;103869.81;5000593;28;20033;-71
2023/02/12 07:31:44;;;;;;;247.90;191.65;;;;;;;5.60;91.05;103859.16;5001716;28;20057;-72
2023/02/12 07:34:10;;;;;;;231.20;193.38;;;;;;;5.62;90.99;103867.84;5002765;28;20084;-72
2023/02/12 07:36:36;;;;;;;236.15;184.43;;;;;;;5.61;90.90;103870.63;5004742;28;20030;-72
2023/02/12 07:39:03;;;;;;;239.30;190.43;;;;;;;5.66;90.94;103861.19;4989177;28;20092;-73
2023/02/12 07:41:32;;;;;;;233.98;192.65;;;;;;;5.74;90.99;103863.88;4984894;28;20038;-72
2023/02/12 07:44:05;;;;;;;215.20;184.02;;;;;;;5.66;91.04;103871.00;4994916;28;20047;-72
2023/02/12 07:46:35;;;;;;;219.77;197.35;;;;;;;5.72;90.91;103863.19;4988305;28;20041;-71
2023/02/12 07:49:04;;;;;;;208.20;184.75;;;;;;;5.69;90.82;103858.22;4998560;28;20030;-74
2023/02/12 07:51:31;;;;;;;220.60;183.80;;;;;;;5.82;91.07;103867.53;5001285;28;20029;-73
2023/02/12 07:53:59;;;;;;;218.77;195.95;;;;;;;5.79;91.03;103873.19;5000074;28;20041;-73
2023/02/12 07:56:29;;;;;;;230.00;199.02;;;;;;;5.84;91.07;103868.25;4995680;28;20026;-71
2023/02/12 07:58:55;;;;;;;256.35;192.68;;;;;;;5.94;91.17;103860.97;4988205;28;20033;-72
2023/02/12 08:01:27;;;;;;;233.55;199.80;;;;;;;5.94;91.07;103872.44;4999114;28;20044;-71
2023/02/12 08:03:57;;;;;;;273.95;195.27;;;;;;;5.96;91.29;103874.94;4995885;28;20032;-73
2023/02/12 08:06:26;;;;;;;265.52;193.10;;;;;;;5.94;90.88;103872.44;4997139;28;20495;-73
2023/02/12 08:08:57;;;;;;;273.80;197.45;;;;;;;6.02;90.82;103874.28;5001307;28;20526;-72
2023/02/12 08:11:24;;;;;;;237.90;204.52;;;;;;;6.06;90.74;103875.63;4999460;28;20030;-72
2023/02/12 08:13:50;;;;;;;249.13;193.73;;;;;;;6.10;90.89;103876.16;5033160;28;20037;-74
2023/02/12 08:16:19;;;;;;;259.83;192.38;;;;;;;6.19;90.87;103876.00;4998800;28;20565;-70
2023/02/12 08:18:45;;;;;;;252.30;192.57;;;;;;;6.15;90.63;103879.97;5029954;28;20109;-73
2023/02/12 08:21:17;;;;;;;355.05;195.32;;;;;;;6.22;90.81;103877.50;5018981;28;20092;-71
2023/02/12 08:23:43;;;;;;;222.52;199.60;;;;;;;6.30;90.40;103882.84;5036914;28;20034;-71
2023/02/12 08:26:32;;;;;;;237.60;201.48;;;;;;;6.24;90.31;103886.16;5001528;28;20562;-72
2023/02/12 08:29:05;;;;;;;223.18;200.18;;;;;;;6.23;90.41;103888.00;4987804;28;20053;-72
2023/02/12 08:31:37;;;;;;;230.50;189.82;;;;;;;6.31;90.59;103883.69;4997181;28;20042;-72
2023/02/12 08:34:04;;;;;;;224.00;190.32;;;;;;;6.27;90.33;103891.97;5003281;28;20387;-72
2023/02/12 08:36:36;;;;;;;218.88;191.85;;;;;;;6.28;90.37;103890.13;4988787;28;20403;-72
2023/02/12 08:39:02;;;;;;;;;;;;;;;6.28;90.27;103898.97;4984855;28;20060;-72
2023/02/12 08:41:28;;;;;;;234.35;209.10;;;;;;;6.31;90.27;103894.31;4997836;28;19960;-74
2023/02/12 08:43:59;;;;;;;220.73;192.68;;;;;;;6.32;90.26;103896.81;5003290;28;20059;-72
2023/02/12 08:46:27;;;;;;;230.15;205.85;;;;;;;6.32;90.16;103902.13;4986300;28;20156;-70
2023/02/12 08:48:55;;;;;;;229.68;204.82;;;;;;;6.27;90.27;103899.97;4999060;28;20096;-73
2023/02/12 08:51:24;;;;;;;218.68;189.85;;;;;;;6.42;90.52;103900.13;4997107;28;20033;-72
2023/02/12 08:53:56;;;;;;;216.13;192.85;;;;;;;6.35;90.27;103901.78;4999243;28;20033;-70
2023/02/12 08:56:22;;;;;;;209.07;187.47;;;;;;;6.43;90.34;103898.31;5015086;28;20153;-74
2023/02/12 08:58:48;;;;;;;220.25;198.95;;;;;;;6.55;89.88;103907.66;4996951;28;20033;-70
2023/02/12 09:01:17;;;;;;;229.48;207.88;;;;;;;6.48;89.93;103910.13;5003720;28;20034;-74
2023/02/12 09:03:44;;;;;;;224.27;203.25;;;;;;;6.49;89.98;103913.63;4998486;28;20033;-74
2023/02/12 09:06:09;;;;;;;207.45;186.48;;;;;;;6.51;89.92;103922.31;4981435;28;20125;-74
2023/02/12 09:08:37;;;;;;;210.05;189.43;;;;;;;6.53;90.04;103912.31;4981308;28;20034;-73
2023/02/12 09:11:12;;;;;;;220.25;200.30;;;;;;;6.55;89.77;103915.63;5012784;28;20092;-72
2023/02/12 09:13:41;;;;;;;212.32;193.32;;;;;;;6.61;89.82;103916.81;5018171;28;20508;-72
2023/02/12 09:16:07;;;;;;;221.50;201.48;;;;;;;6.66;89.67;103923.31;4981530;28;20567;-74
2023/02/12 09:18:36;;;;;;;213.38;195.05;;;;;;;6.72;89.74;103914.66;4983065;28;20038;-72
2023/02/12 09:21:05;;;;;;;213.90;195.02;;;;;;;6.72;89.67;103916.50;4966695;28;20518;-73
2023/02/12 09:23:30;;;;;;;206.13;186.90;;;;;;;6.70;89.25;103929.94;4979683;28;20113;-73
2023/02/12 09:25:56;;;;;;;208.95;189.35;;;;;;;6.82;89.18;103925.97;4981544;28;20682;-72
2023/02/12 09:28:22;;;;;;;210.13;192.20;;;;;;;6.86;89.36;103923.81;4978414;28;20042;-72
2023/02/12 09:30:47;;;;;;;202.40;184.10;;;;;;;7.03;88.87;103916.63;4995627;28;20121;-73
2023/02/12 09:33:13;;;;;;;211.38;193.43;;;;;;;6.99;88.53;103917.97;4961814;28;20034;-73
2023/02/12 09:35:40;;;;;;;210.50;193.10;;;;;;;6.97;88.20;103923.44;4982555;28;20057;-73
2023/02/12 09:38:07;;;;;;;211.95;194.45;;;;;;;7.04;88.71;103924.44;4978033;28;20030;-73
2023/02/12 09:40:42;;;;;;;198.82;181.70;;;;;;;6.96;88.50;103927.13;4969004;28;20035;-72
2023/02/12 09:43:42;;;;;;;201.75;184.07;;;;;;;6.91;88.39;103934.81;5002160;28;20033;-72
2023/02/12 09:46:17;;;;;;;201.00;183.88;;;;;;;7.06;88.50;103935.78;4949675;28;20046;-73
2023/02/12 09:48:47;;;;;;;196.98;180.25;;;;;;;7.02;88.10;103929.13;4968793;28;20129;-72
2023/02/12 09:51:13;;;;;;;198.73;181.70;;;;;;;7.07;87.97;103934.78;5004677;28;20040;-72
2023/02/12 09:53:44;;;;;;;202.82;185.30;;;;;;;7.11;87.88;103929.94;4970532;28;21006;-72
2023/02/12 09:56:17;;;;;;;198.75;181.80;;;;;;;7.03;88.07;103930.78;5002170;28;20022;-70
2023/02/12 09:58:48;;;;;;;201.82;183.77;;;;;;;7.25;87.72;103926.59;5001154;28;20057;-71
2023/02/12 10:01:17;;;;;;;209.68;193.00;;;;;;;7.29;87.53;103938.56;4982397;28;20041;-71
2023/02/12 10:03:44;;;;;;;197.32;180.60;;;;;;;7.46;87.34;103939.41;4969944;28;20022;-71
2023/02/12 10:06:17;;;;;;;197.20;180.57;;;;;;;7.64;87.15;103949.81;5001011;28;20030;-73
2023/02/12 10:09:33;;;;;;;205.30;189.65;;;;;;;7.51;86.28;103942.34;4987814;28;20045;-72
2023/02/12 10:12:04;;;;;;;202.50;187.15;;;;;;;7.76;86.40;103945.78;4998516;28;20042;-72
2023/02/12 10:14:51;;;;;;;191.00;175.15;;;;;;;7.68;85.37;103948.50;4979493;28;20044;-75
2023/02/12 10:17:47;;;;;;;196.73;180.43;;;;;;;7.59;85.70;103954.88;4984341;28;20034;-72
2023/02/12 10:20:45;;;;;;;200.07;182.98;;;;;;;7.59;85.98;103941.53;4982917;28;20380;-74
2023/02/12 10:23:44;;;;;;;200.27;183.55;;;;;;;7.66;86.19;103951.34;4977532;28;20034;-73
2023/02/12 10:26:20;;;;;;;194.05;178.15;;;;;;;7.51;86.17;103946.84;4987212;28;20518;-73
2023/02/12 10:28:46;;;;;;;199.75;184.60;;;;;;;7.57;85.95;103951.50;4985948;28;20035;-72
2023/02/12 10:31:22;;;;;;;202.60;187.50;;;;;;;7.49;85.63;103952.38;5013005;28;20064;-73
2023/02/12 10:33:49;;;;;;;208.13;192.48;;;;;;;7.50;86.00;103956.69;4983329;28;20476;-72
2023/02/12 10:36:31;;;;;;;203.60;188.32;;;;;;;7.45;86.36;103947.53;4986095;28;20038;-73
2023/02/12 10:39:01;;;;;;;199.38;184.40;;;;;;;7.61;85.91;103944.84;4999443;28;20038;-72
2023/02/12 10:41:31;;;;;;;191.25;175.85;;;;;;;7.74;86.20;103945.13;4983540;28;20424;-73
2023/02/12 10:43:57;;;;;;;186.05;171.25;;;;;;;7.87;86.11;103942.75;4987240;28;20109;-73
2023/02/12 10:46:22;;;;;;;184.02;169.40;;;;;;;7.85;84.96;103939.41;4984127;28;20121;-73
2023/02/12 10:48:57;;;;;;;184.18;169.43;;;;;;;7.92;84.85;103944.88;4981985;28;20418;-73
2023/02/12 10:51:47;;;;;;;194.40;180.43;;;;;;;7.94;85.26;103933.03;4998350;28;20034;-73
2023/02/12 10:54:39;;;;;;;194.35;180.43;;;;;;;7.82;85.07;103945.09;4964455;28;20124;-72
2023/02/12 10:57:27;;;;;;;198.35;183.88;;;;;;;7.97;85.30;103936.38;4996717;28;20447;-72
2023/02/12 11:00:13;;;;;;;183.80;169.35;;;;;;;7.83;84.65;103941.41;4998148;28;20254;-73
2023/02/12 11:02:39;;;;;;;196.13;181.77;;;;;;;7.76;84.96;103932.44;4981949;28;20037;-72
2023/02/12 11:05:27;;;;;;;196.05;181.85;;;;;;;7.83;84.92;103928.09;4983952;28;20502;-73
2023/02/12 11:07:53;;;;;;;189.20;174.05;;;;;;;7.92;84.34;103939.53;4984494;28;20100;-73
2023/02/12 11:10:28;;;;;;;208.18;192.40;;;;;;;8.04;84.38;103932.00;4968584;28;20520;-72
2023/02/12 11:12:54;;;;;;;192.20;176.68;;;;;;;7.93;84.64;103938.56;4970356;28;20611;-70
2023/02/12 11:15:23;;;;;;;197.07;182.52;;;;;;;7.87;84.74;103929.41;4980084;28;20113;-72
2023/02/12 11:18:01;;;;;;;196.35;181.88;;;;;;;7.75;84.61;103925.44;4999808;28;20023;-71
2023/02/12 11:20:52;;;;;;;193.80;177.95;;;;;;;7.71;84.87;103926.78;4983995;28;20053;-71